createdAt,value
2018-07-09T00:00:43.934Z,64.5
2018-07-09T00:01:43.935Z,63.93
2018-07-09T00:02:43.932Z,65.65
2018-07-09T00:03:43.924Z,65.36
2018-07-09T00:04:43.660Z,65.84
2018-07-09T00:05:43.919Z,64.88
2018-07-09T00:06:43.923Z,65.08
2018-07-09T00:07:43.653Z,65.84
2018-07-09T00:08:43.901Z,64.69
2018-07-09T00:09:43.894Z,63.54
2018-07-09T00:10:43.893Z,62.68
2018-07-09T00:11:43.884Z,57.7
2018-07-09T00:12:43.885Z,58.47
2018-07-09T00:13:43.879Z,58.37
2018-07-09T00:14:43.874Z,58.34
2018-07-09T00:15:43.872Z,58.63
2018-07-09T00:16:43.868Z,56.82
2018-07-09T00:17:43.864Z,56.34
2018-07-09T00:18:43.857Z,56.34
2018-07-09T00:19:43.853Z,53.94
2018-07-09T00:20:43.849Z,55.86
2018-07-09T00:21:43.843Z,57.48
2018-07-09T00:22:43.841Z,58.06
2018-07-09T00:23:43.835Z,59.97
2018-07-09T00:24:43.574Z,59.3
2018-07-09T00:25:43.570Z,59.01
2018-07-09T00:26:43.819Z,59.69
2018-07-09T00:27:43.815Z,59.78
2018-07-09T00:28:43.816Z,60.55
2018-07-09T00:29:43.550Z,61.31
2018-07-09T00:30:43.546Z,61.69
2018-07-09T00:31:43.796Z,61.6
2018-07-09T00:32:43.792Z,62.46
2018-07-09T00:33:43.531Z,60.93
2018-07-09T00:34:43.784Z,58.15
2018-07-09T00:35:43.778Z,55.38
2018-07-09T00:36:43.773Z,55
2018-07-09T00:37:43.510Z,56.43
2018-07-09T00:38:43.793Z,58.34
2018-07-09T00:39:43.759Z,59.3
2018-07-09T00:40:43.756Z,59.2
2018-07-09T00:41:43.753Z,57.97
2018-07-09T00:42:43.745Z,58.25
2018-07-09T00:43:43.745Z,57.29
2018-07-09T00:44:43.734Z,56.34
2018-07-09T00:45:43.777Z,56.24
2018-07-09T00:46:43.732Z,58.06
2018-07-09T00:47:43.721Z,59.01
2018-07-09T00:48:43.717Z,58.25
2018-07-09T00:49:43.712Z,56.91
2018-07-09T00:50:43.707Z,55.76
2018-07-09T00:51:43.713Z,55.76
2018-07-09T00:52:43.697Z,55.1
2018-07-09T00:53:43.693Z,55.19
2018-07-09T00:54:43.693Z,55.16
2018-07-09T00:55:43.681Z,53.73
2018-07-09T00:56:43.683Z,52.58
2018-07-09T00:57:43.671Z,51.91
2018-07-09T00:58:43.668Z,49.52
2018-07-09T00:59:43.410Z,47.71
2018-07-09T01:00:43.661Z,48.28
2018-07-09T01:01:43.652Z,47.03
2018-07-09T01:02:43.391Z,46.08
2018-07-09T01:03:43.643Z,48.09
2018-07-09T01:04:43.637Z,47.78
2018-07-09T01:05:43.375Z,46.84
2018-07-09T01:06:43.369Z,45.98
2018-07-09T01:07:43.624Z,46.25
2018-07-09T01:08:43.619Z,45.67
2018-07-09T01:09:43.614Z,45.48
2018-07-09T01:10:43.349Z,46.15
2018-07-09T01:11:43.603Z,46.25
2018-07-09T01:12:43.595Z,47.58
2018-07-09T01:13:43.593Z,48.16
2018-07-09T01:14:43.631Z,48.64
2018-07-09T01:15:43.581Z,49.4
2018-07-09T01:16:43.582Z,49.98
2018-07-09T01:17:43.571Z,49.49
2018-07-09T01:18:43.306Z,49.49
2018-07-09T01:19:43.300Z,49.3
2018-07-09T01:20:43.552Z,49.21
2018-07-09T01:21:43.559Z,49.11
2018-07-09T01:22:43.543Z,49.11
2018-07-09T01:23:43.543Z,48.25
2018-07-09T01:24:43.535Z,49.3
2018-07-09T01:25:43.522Z,50.16
2018-07-09T01:26:43.526Z,49.69
2018-07-09T01:27:43.519Z,49.3
2018-07-09T01:28:43.507Z,47.58
2018-07-09T01:29:43.503Z,46.44
2018-07-09T01:30:43.500Z,45.58
2018-07-09T01:31:43.495Z,45.2
2018-07-09T01:32:43.486Z,44.24
2018-07-09T01:33:43.226Z,45.87
2018-07-09T01:34:43.484Z,46.82
2018-07-09T01:35:43.475Z,48.93
2018-07-09T01:36:43.464Z,49.28
2018-07-09T01:37:43.503Z,49.4
2018-07-09T01:38:43.457Z,50.16
2018-07-09T01:39:43.451Z,50.74
2018-07-09T01:40:43.448Z,51.12
2018-07-09T01:41:43.439Z,51.89
2018-07-09T01:42:43.435Z,50.64
2018-07-09T01:43:43.428Z,50.07
2018-07-09T01:44:43.426Z,50.43
2018-07-09T01:45:43.423Z,49.02
2018-07-09T01:46:43.412Z,49.66
2018-07-09T01:47:43.408Z,50.04
2018-07-09T01:48:43.397Z,50.24
2018-07-09T01:49:43.405Z,50.43
2018-07-09T01:50:43.133Z,50.52
2018-07-09T01:51:43.384Z,51.29
2018-07-09T01:52:43.377Z,49.95
2018-07-09T01:53:43.370Z,49.28
2018-07-09T01:54:43.111Z,49.18
2018-07-09T01:55:43.357Z,48.23
2018-07-09T01:56:43.099Z,47.08
2018-07-09T01:57:43.091Z,48.04
2018-07-09T01:58:43.348Z,46.8
2018-07-09T01:59:43.337Z,45.84
2018-07-09T02:00:43.335Z,44.51
2018-07-09T02:01:43.323Z,43.36
2018-07-09T02:02:43.321Z,43.15
2018-07-09T02:03:43.314Z,43.33
2018-07-09T02:04:43.309Z,43.43
2018-07-09T02:05:43.045Z,43.53
2018-07-09T02:06:43.297Z,43.15
2018-07-09T02:07:43.289Z,42.19
2018-07-09T02:08:43.287Z,40.95
2018-07-09T02:09:43.019Z,40.28
2018-07-09T02:10:43.270Z,40.28
2018-07-09T02:11:43.265Z,40
2018-07-09T02:12:43.260Z,39.32
2018-07-09T02:13:43.252Z,37.71
2018-07-09T02:14:43.248Z,36.27
2018-07-09T02:15:43.241Z,35.99
2018-07-09T02:16:43.236Z,36.75
2018-07-09T02:17:43.230Z,36.85
2018-07-09T02:18:43.222Z,37.23
2018-07-09T02:19:43.218Z,37.51
2018-07-09T02:20:43.211Z,38.37
2018-07-09T02:21:43.207Z,39.42
2018-07-09T02:22:43.198Z,40
2018-07-09T02:23:43.193Z,39.23
2018-07-09T02:24:43.184Z,37.99
2018-07-09T02:25:43.177Z,37.61
2018-07-09T02:26:43.174Z,37.59
2018-07-09T02:27:43.165Z,37.78
2018-07-09T02:28:43.161Z,36.35
2018-07-09T02:29:43.161Z,34.82
2018-07-09T02:30:43.147Z,33.87
2018-07-09T02:31:43.139Z,33.97
2018-07-09T02:32:42.878Z,34.06
2018-07-09T02:33:43.126Z,32.63
2018-07-09T02:34:43.125Z,31.48
2018-07-09T02:35:43.110Z,30.72
2018-07-09T02:36:43.107Z,28.53
2018-07-09T02:37:43.118Z,27.48
2018-07-09T02:38:43.097Z,27.19
2018-07-09T02:39:43.087Z,27.48
2018-07-09T02:40:43.080Z,26.04
2018-07-09T02:41:43.074Z,24.8
2018-07-09T02:42:43.068Z,24.8
2018-07-09T02:43:43.059Z,24.9
2018-07-09T02:44:43.057Z,25.47
2018-07-09T02:45:43.045Z,25.95
2018-07-09T02:46:42.793Z,26.62
2018-07-09T02:47:43.039Z,27.28
2018-07-09T02:48:42.767Z,27.76
2018-07-09T02:49:43.019Z,28.81
2018-07-09T02:50:43.015Z,28.91
2018-07-09T02:51:43.006Z,27.76
2018-07-09T02:52:43.001Z,26.81
2018-07-09T02:53:42.992Z,26.43
2018-07-09T02:54:42.986Z,26.62
2018-07-09T02:55:42.990Z,25.76
2018-07-09T02:56:42.977Z,25.85
2018-07-09T02:57:42.965Z,25.28
2018-07-09T02:58:42.706Z,24.04
2018-07-09T02:59:42.694Z,23.75
2018-07-09T03:00:43.066Z,22.61
2018-07-09T03:01:42.678Z,21.75
2018-07-09T03:02:42.958Z,21.75
2018-07-09T03:03:42.930Z,22.42
2018-07-09T03:04:42.919Z,22.6
2018-07-09T03:05:42.911Z,22.03
2018-07-09T03:06:42.908Z,21.84
2018-07-09T03:07:42.948Z,21.93
2018-07-09T03:08:42.893Z,22.41
2018-07-09T03:09:42.625Z,22.41
2018-07-09T03:10:42.881Z,21.74
2018-07-09T03:11:42.874Z,21.74
2018-07-09T03:12:42.870Z,22.03
2018-07-09T03:13:42.854Z,22.22
2018-07-09T03:14:42.847Z,21.84
2018-07-09T03:15:42.839Z,21.08
2018-07-09T03:16:42.834Z,20.21
2018-07-09T03:17:42.567Z,20.31
2018-07-09T03:18:42.820Z,20.4
2018-07-09T03:19:42.815Z,21.26
2018-07-09T03:20:42.804Z,22.41
2018-07-09T03:21:42.796Z,23.27
2018-07-09T03:22:42.790Z,23.17
2018-07-09T03:23:42.790Z,23.36
2018-07-09T03:24:42.776Z,21.84
2018-07-09T03:25:42.509Z,21.93
2018-07-09T03:26:42.761Z,21.36
2018-07-09T03:27:42.762Z,20.5
2018-07-09T03:28:42.743Z,20.12
2018-07-09T03:29:42.933Z,20.03
2018-07-09T03:30:42.732Z,19.74
2018-07-09T03:31:42.736Z,19.26
2018-07-09T03:32:42.729Z,19.26
2018-07-09T03:33:42.707Z,19.64
2018-07-09T03:34:42.704Z,19.84
2018-07-09T03:35:42.694Z,21.55
2018-07-09T03:36:42.700Z,23.55
2018-07-09T03:37:42.692Z,24.22
2018-07-09T03:38:42.672Z,23.93
2018-07-09T03:39:42.666Z,23.08
2018-07-09T03:40:42.400Z,22.79
2018-07-09T03:41:42.652Z,24.41
2018-07-09T03:42:42.650Z,25.74
2018-07-09T03:43:42.635Z,26.42
2018-07-09T03:44:42.373Z,26.03
2018-07-09T03:45:42.621Z,25.94
2018-07-09T03:46:42.615Z,26.03
2018-07-09T03:47:42.607Z,24.8
2018-07-09T03:48:42.604Z,24.32
2018-07-09T03:49:42.595Z,23.27
2018-07-09T03:50:42.583Z,22.42
2018-07-09T03:51:42.576Z,22.42
2018-07-09T03:52:42.569Z,22.04
2018-07-09T03:53:42.567Z,23.28
2018-07-09T03:54:42.557Z,24.14
2018-07-09T03:55:42.292Z,24.33
2018-07-09T03:56:42.546Z,23.66
2018-07-09T03:57:42.535Z,23.85
2018-07-09T03:58:42.527Z,23.66
2018-07-09T03:59:42.262Z,23.28
2018-07-09T04:00:42.518Z,23.09
2018-07-09T04:01:42.249Z,22.33
2018-07-09T04:02:42.500Z,22.61
2018-07-09T04:03:42.490Z,22.99
2018-07-09T04:04:42.485Z,23.18
2018-07-09T04:05:42.475Z,23.09
2018-07-09T04:06:42.470Z,24.14
2018-07-09T04:07:42.462Z,23.85
2018-07-09T04:08:42.480Z,24.04
2018-07-09T04:09:42.454Z,24.04
2018-07-09T04:10:42.442Z,24.33
2018-07-09T04:11:42.433Z,25.09
2018-07-09T04:12:42.427Z,25.57
2018-07-09T04:13:42.421Z,25.57
2018-07-09T04:14:42.485Z,26.14
2018-07-09T04:15:42.408Z,25.95
2018-07-09T04:16:42.401Z,25.67
2018-07-09T04:17:42.137Z,25.95
2018-07-09T04:18:42.392Z,25.49
2018-07-09T04:19:42.379Z,25.49
2018-07-09T04:20:42.116Z,25.49
2018-07-09T04:21:42.364Z,25.39
2018-07-09T04:22:42.377Z,25.39
2018-07-09T04:23:42.351Z,25.96
2018-07-09T04:24:42.344Z,26.54
2018-07-09T04:25:42.337Z,27.59
2018-07-09T04:26:42.074Z,28.06
2018-07-09T04:27:42.326Z,27.49
2018-07-09T04:28:42.321Z,27.11
2018-07-09T04:29:42.309Z,25.58
2018-07-09T04:30:42.050Z,25.87
2018-07-09T04:31:42.330Z,25.01
2018-07-09T04:32:42.291Z,25.49
2018-07-09T04:33:42.285Z,26.44
2018-07-09T04:34:42.278Z,27.79
2018-07-09T04:35:42.273Z,27.98
2018-07-09T04:36:42.264Z,28.08
2018-07-09T04:37:42.307Z,28.94
2018-07-09T04:38:42.249Z,29.13
2018-07-09T04:39:42.244Z,29.41
2018-07-09T04:40:42.237Z,30.18
2018-07-09T04:41:42.232Z,30.56
2018-07-09T04:42:42.226Z,32.37
2018-07-09T04:43:41.963Z,32.47
2018-07-09T04:44:42.212Z,32.58
2018-07-09T04:45:41.952Z,32.47
2018-07-09T04:46:42.206Z,33.15
2018-07-09T04:47:42.195Z,33.44
2018-07-09T04:48:42.189Z,33.92
2018-07-09T04:49:42.184Z,35.06
2018-07-09T04:50:42.177Z,34.88
2018-07-09T04:51:42.170Z,35.74
2018-07-09T04:52:42.166Z,36.31
2018-07-09T04:53:42.157Z,36.41
2018-07-09T04:54:42.156Z,37.57
2018-07-09T04:55:42.147Z,38.41
2018-07-09T04:56:42.141Z,39
2018-07-09T04:57:41.874Z,39.1
2018-07-09T04:58:41.870Z,39.58
2018-07-09T04:59:41.863Z,40.25
2018-07-09T05:00:42.117Z,41.11
2018-07-09T05:01:42.106Z,42.44
2018-07-09T05:02:42.102Z,43.79
2018-07-09T05:03:42.094Z,46.56
2018-07-09T05:04:42.090Z,48.18
2018-07-09T05:05:42.262Z,48.85
2018-07-09T05:06:42.085Z,53.73
2018-07-09T05:07:42.070Z,57.39
2018-07-09T05:08:41.811Z,61.41
2018-07-09T05:09:42.062Z,65.52
2018-07-09T05:10:42.060Z,66.19
2018-07-09T05:11:41.794Z,66.96
2018-07-09T05:12:42.050Z,69.35
2018-07-09T05:13:42.040Z,70.78
2018-07-09T05:14:42.033Z,71.26
2018-07-09T05:15:41.769Z,72.31
2018-07-09T05:16:42.023Z,75.66
2018-07-09T05:17:42.019Z,76.04
2018-07-09T05:18:42.018Z,77.48
2018-07-09T05:19:42.006Z,77
2018-07-09T05:20:42.174Z,80.06
2018-07-09T05:21:41.993Z,82.2
2018-07-09T05:22:42.003Z,82.3
2018-07-09T05:23:41.991Z,80.87
2018-07-09T05:24:41.982Z,81.73
2018-07-09T05:25:41.975Z,82.59
2018-07-09T05:26:41.722Z,82.68
2018-07-09T05:27:41.963Z,84.88
2018-07-09T05:28:41.958Z,85.75
2018-07-09T05:29:41.696Z,85.17
2018-07-09T05:30:41.948Z,85.36
2018-07-09T05:31:41.942Z,83.78
2018-07-09T05:32:41.940Z,85.41
2018-07-09T05:33:41.935Z,90.77
2018-07-09T05:34:41.929Z,91.97
2018-07-09T05:35:41.667Z,92.21
2018-07-09T05:36:41.918Z,92.01
2018-07-09T05:37:41.913Z,93.26
2018-07-09T05:38:41.909Z,95.65
2018-07-09T05:39:41.907Z,93.35
2018-07-09T05:40:41.902Z,92.68
2018-07-09T05:41:41.900Z,95.94
2018-07-09T05:42:41.897Z,96.42
2018-07-09T05:43:41.629Z,97.18
2018-07-09T05:44:41.879Z,96.99
2018-07-09T05:45:41.623Z,98.52
2018-07-09T05:46:41.868Z,97.95
2018-07-09T05:47:41.865Z,97.23
2018-07-09T05:48:41.859Z,98.19
2018-07-09T05:49:41.599Z,99.15
2018-07-09T05:50:41.854Z,97.52
2018-07-09T05:51:41.849Z,98.47
2018-07-09T05:52:41.843Z,98.1
2018-07-09T05:53:41.849Z,98
2018-07-09T05:54:41.832Z,97.61
2018-07-09T05:55:41.570Z,96.66
2018-07-09T05:56:41.824Z,99.91
2018-07-09T05:57:41.818Z,99.15
2018-07-09T05:58:41.565Z,99.99
2018-07-09T05:59:41.810Z,99.99
2018-07-09T06:00:41.811Z,99.99
2018-07-09T06:01:41.801Z,99.99
2018-07-09T06:02:41.797Z,99.99
2018-07-09T06:03:41.794Z,99.99
2018-07-09T06:04:41.792Z,99.99
2018-07-09T06:05:41.792Z,99.99
2018-07-09T06:06:41.783Z,99.99
2018-07-09T06:07:41.786Z,99.99
2018-07-09T06:08:41.773Z,99.99
2018-07-09T06:09:41.776Z,99.99
2018-07-09T06:10:41.766Z,99.99
2018-07-09T06:11:41.769Z,99.99
2018-07-09T06:12:41.501Z,99.99
2018-07-09T06:13:41.917Z,99.99
2018-07-09T06:14:41.495Z,99.99
2018-07-09T06:15:41.747Z,99.99
2018-07-09T06:16:41.747Z,99.99
2018-07-09T06:17:41.485Z,99.99
2018-07-09T06:18:41.736Z,99.99
2018-07-09T06:19:41.916Z,99.99
2018-07-09T06:20:41.729Z,99.99
2018-07-09T06:21:41.730Z,99.99
2018-07-09T06:22:41.749Z,99.99
2018-07-09T06:23:41.725Z,99.99
2018-07-09T06:24:41.719Z,99.99
2018-07-09T06:25:41.727Z,99.99
2018-07-09T06:26:41.712Z,99.99
2018-07-09T06:27:41.763Z,99.99
2018-07-09T06:28:41.733Z,99.99
2018-07-09T06:29:41.703Z,99.99
2018-07-09T06:30:41.713Z,99.99
2018-07-09T06:31:41.797Z,99.99
2018-07-09T06:32:41.701Z,99.99
2018-07-09T06:33:41.703Z,99.99
2018-07-09T06:34:41.694Z,99.99
2018-07-09T06:35:41.685Z,99.99
2018-07-09T06:36:41.682Z,99.99
2018-07-09T06:37:41.686Z,99.99
2018-07-09T06:38:41.742Z,99.99
2018-07-09T06:39:41.679Z,99.99
2018-07-09T06:40:41.676Z,99.99
2018-07-09T06:41:41.671Z,99.99
2018-07-09T06:42:41.674Z,99.99
2018-07-09T06:43:41.411Z,99.99
2018-07-09T06:44:41.443Z,99.99
2018-07-09T06:45:41.664Z,99.99
2018-07-09T06:46:41.659Z,99.99
2018-07-09T06:47:41.399Z,99.99
2018-07-09T06:48:41.655Z,98.72
2018-07-09T06:49:41.656Z,93.43
2018-07-09T06:50:41.660Z,87.4
2018-07-09T06:51:41.653Z,76.1
2018-07-09T06:52:41.651Z,70.26
2018-07-09T06:53:41.673Z,65.78
2018-07-09T06:54:41.645Z,64.47
2018-07-09T06:55:41.646Z,59.11
2018-07-09T06:56:41.644Z,55.63
2018-07-09T06:57:41.390Z,55.24
2018-07-09T06:58:41.647Z,54.27
2018-07-09T06:59:41.644Z,56.21
2018-07-09T07:00:41.645Z,55.34
2018-07-09T07:01:41.646Z,54.47
2018-07-09T07:02:41.647Z,52.46
2018-07-09T07:03:41.651Z,50.35
2018-07-09T07:04:41.648Z,49.44
2018-07-09T07:05:41.651Z,47.13
2018-07-09T07:06:41.651Z,44.34
2018-07-09T07:07:41.658Z,43.59
2018-07-09T07:08:41.808Z,43.66
2018-07-09T07:09:41.657Z,42.43
2018-07-09T07:10:41.659Z,42.35
2018-07-09T07:11:41.665Z,40.91
2018-07-09T07:12:41.665Z,39.47
2018-07-09T07:13:41.669Z,38.7
2018-07-09T07:14:41.412Z,38.42
2018-07-09T07:15:41.672Z,37.16
2018-07-09T07:16:41.680Z,37.45
2018-07-09T07:17:41.682Z,35.81
2018-07-09T07:18:41.684Z,34.66
2018-07-09T07:19:41.429Z,34.37
2018-07-09T07:20:41.708Z,35.06
2018-07-09T07:21:41.695Z,37.21
2018-07-09T07:22:41.440Z,34.58
2018-07-09T07:23:41.444Z,33.61
2018-07-09T07:24:41.709Z,32.73
2018-07-09T07:25:41.711Z,32.55
2018-07-09T07:26:41.728Z,32.94
2018-07-09T07:27:41.717Z,34.29
2018-07-09T07:28:41.724Z,34.29
2018-07-09T07:29:41.730Z,32.92
2018-07-09T07:30:41.741Z,33.29
2018-07-09T07:31:41.738Z,33.2
2018-07-09T07:32:41.816Z,34.25
2018-07-09T07:33:41.749Z,35.41
2018-07-09T07:34:41.780Z,36.15
2018-07-09T07:35:41.514Z,37.28
2018-07-09T07:36:41.764Z,39.28
2018-07-09T07:37:41.768Z,41.86
2018-07-09T07:38:41.769Z,42.8
2018-07-09T07:39:41.517Z,44.31
2018-07-09T07:40:41.779Z,44.48
2018-07-09T07:41:41.783Z,44.77
2018-07-09T07:42:41.528Z,44.77
2018-07-09T07:43:41.794Z,46.12
2018-07-09T07:44:41.796Z,47.94
2018-07-09T07:45:41.796Z,50.07
2018-07-09T07:46:41.797Z,49.19
2018-07-09T07:47:41.801Z,46.8
2018-07-09T07:48:41.805Z,45.98
2018-07-09T07:49:41.546Z,47.02
2018-07-09T07:50:42.178Z,47.11
2018-07-09T07:51:41.814Z,48.93
2018-07-09T07:52:41.556Z,49.49
2018-07-09T07:53:41.818Z,50.74
2018-07-09T07:54:41.820Z,49.1
2018-07-09T07:55:41.860Z,50.48
2018-07-09T07:56:41.824Z,51.06
2018-07-09T07:57:41.568Z,47.41
2018-07-09T07:58:41.830Z,45.4
2018-07-09T07:59:41.836Z,44.26
2018-07-09T08:00:41.838Z,44.54
2018-07-09T08:01:41.836Z,43.65
2018-07-09T08:02:41.585Z,44.33
2018-07-09T08:03:41.841Z,44.04
2018-07-09T08:04:41.848Z,43.29
2018-07-09T08:05:41.847Z,42.44
2018-07-09T08:06:41.850Z,41.97
2018-07-09T08:07:41.594Z,42.09
2018-07-09T08:08:41.857Z,41.14
2018-07-09T08:09:41.999Z,40.39
2018-07-09T08:10:41.601Z,41.14
2018-07-09T08:11:51.343Z,40.97
2018-07-09T08:13:31.682Z,39.9
2018-07-09T08:14:30.393Z,39.26
2018-07-09T08:15:30.495Z,37.24
2018-07-09T08:16:30.390Z,36.77
2018-07-09T08:17:30.391Z,38.11
2018-07-09T08:18:30.140Z,37.62
2018-07-09T08:19:30.399Z,36.57
2018-07-09T08:20:30.403Z,37.45
2018-07-09T08:21:30.418Z,36.16
2018-07-09T08:22:30.409Z,38.39
2018-07-09T08:23:30.154Z,40.97
2018-07-09T08:24:30.412Z,41.53
2018-07-09T08:25:30.663Z,41.61
2018-07-09T08:26:30.453Z,43.02
2018-07-09T08:27:30.164Z,43.68
2018-07-09T08:28:30.170Z,44.53
2018-07-09T08:29:30.435Z,47.02
2018-07-09T08:30:30.170Z,47.09
2018-07-09T08:31:30.663Z,49.19
2018-07-09T08:32:30.436Z,51.71
2018-07-09T08:33:30.433Z,51.2
2018-07-09T08:34:30.433Z,49.85
2018-07-09T08:35:30.437Z,48.88
2018-07-09T08:36:30.436Z,50.81
2018-07-09T08:37:30.183Z,50.81
2018-07-09T08:38:30.442Z,50.59
2018-07-09T08:39:30.187Z,51.37
2018-07-09T08:40:30.444Z,52.23
2018-07-09T08:41:30.443Z,52.81
2018-07-09T08:42:30.445Z,55.68
2018-07-09T08:43:30.450Z,58.29
2018-07-09T08:44:30.451Z,56.46
2018-07-09T08:45:30.453Z,55.88
2018-07-09T08:46:30.454Z,54.72
2018-07-09T08:47:30.605Z,54.17
2018-07-09T08:48:30.456Z,53.39
2018-07-09T08:49:30.466Z,56.58
2018-07-09T08:50:30.200Z,52.81
2018-07-09T08:51:30.457Z,53.78
2018-07-09T08:52:30.464Z,55.13
2018-07-09T08:53:30.206Z,55.42
2018-07-09T08:54:30.207Z,53.49
2018-07-09T08:55:30.463Z,56.1
2018-07-09T08:56:30.464Z,55.52
2018-07-09T08:57:30.471Z,56.2
2018-07-09T08:58:30.468Z,57.06
2018-07-09T08:59:30.468Z,54.46
2018-07-09T09:00:30.470Z,54.65
2018-07-09T09:01:30.470Z,55.42
2018-07-09T09:02:30.481Z,54.07
2018-07-09T09:03:30.471Z,52.14
2018-07-09T09:04:30.476Z,58.03
2018-07-09T09:05:30.219Z,58.25
2018-07-09T09:06:30.479Z,52.36
2018-07-09T09:07:30.481Z,51.51
2018-07-09T09:08:30.476Z,51.03
2018-07-09T09:09:30.480Z,50.74
2018-07-09T09:10:30.576Z,53.45
2018-07-09T09:11:30.501Z,53.35
2018-07-09T09:12:30.487Z,52.09
2018-07-09T09:13:30.487Z,51.9
2018-07-09T09:14:30.484Z,52.67
2018-07-09T09:15:30.487Z,53.16
2018-07-09T09:16:30.554Z,51.13
2018-07-09T09:17:30.489Z,49.9
2018-07-09T09:18:30.493Z,48.93
2018-07-09T09:19:30.494Z,49.15
2018-07-09T09:20:30.493Z,50.12
2018-07-09T09:21:30.499Z,46.36
2018-07-09T09:22:30.497Z,46.94
2018-07-09T09:23:30.502Z,45.95
2018-07-09T09:24:30.501Z,45.86
2018-07-09T09:25:30.574Z,46.34
2018-07-09T09:26:30.506Z,48.83
2018-07-09T09:27:30.251Z,48.06
2018-07-09T09:28:30.253Z,47
2018-07-09T09:29:30.256Z,47.86
2018-07-09T09:30:30.514Z,50.18
2018-07-09T09:31:30.296Z,51.06
2018-07-09T09:32:30.517Z,50.16
2018-07-09T09:33:30.568Z,50.57
2018-07-09T09:34:30.520Z,49.58
2018-07-09T09:35:30.523Z,49
2018-07-09T09:36:30.268Z,49.49
2018-07-09T09:37:30.729Z,47.96
2018-07-09T09:38:30.525Z,49.6
2018-07-09T09:39:30.529Z,48.16
2018-07-09T09:40:30.532Z,48.16
2018-07-09T09:41:30.533Z,47.19
2018-07-09T09:42:30.540Z,48.93
2018-07-09T09:43:30.278Z,48.83
2018-07-09T09:44:30.539Z,52.22
2018-07-09T09:45:30.550Z,55.11
2018-07-09T09:46:30.559Z,53.47
2018-07-09T09:47:30.545Z,52.24
2018-07-09T09:48:30.287Z,51.08
2018-07-09T09:49:30.593Z,52.22
2018-07-09T09:50:30.291Z,51.47
2018-07-09T09:51:30.556Z,49.73
2018-07-09T09:52:30.555Z,49.02
2018-07-09T09:53:30.298Z,48.25
2018-07-09T09:54:30.559Z,49.51
2018-07-09T09:55:30.301Z,51.15
2018-07-09T09:56:30.564Z,51.83
2018-07-09T09:57:30.561Z,51.83
2018-07-09T09:58:30.565Z,51.25
2018-07-09T09:59:30.567Z,50.38
2018-07-09T10:00:30.349Z,52.22
2018-07-09T10:01:30.571Z,54.61
2018-07-09T10:02:30.317Z,52.39
2018-07-09T10:03:30.577Z,51.71
2018-07-09T10:04:30.575Z,52.39
2018-07-09T10:05:30.320Z,52.7
2018-07-09T10:06:30.636Z,50.86
2018-07-09T10:07:30.591Z,50.18
2018-07-09T10:08:30.675Z,52.22
2018-07-09T10:09:30.583Z,52.22
2018-07-09T10:10:30.594Z,50.38
2018-07-09T10:11:30.332Z,48.16
2018-07-09T10:12:30.591Z,54.17
2018-07-09T10:13:30.590Z,52.56
2018-07-09T10:14:30.337Z,50.43
2018-07-09T10:15:30.598Z,48.03
2018-07-09T10:16:30.648Z,46.36
2018-07-09T10:17:30.605Z,46.46
2018-07-09T10:18:30.607Z,47.62
2018-07-09T10:19:30.610Z,46.34
2018-07-09T10:20:30.351Z,45.86
2018-07-09T10:21:30.611Z,47.99
2018-07-09T10:22:30.612Z,47.79
2018-07-09T10:23:30.665Z,46.15
2018-07-09T10:24:30.360Z,46.15
2018-07-09T10:25:30.365Z,47.09
2018-07-09T10:26:30.625Z,49.12
2018-07-09T10:27:30.630Z,50.38
2018-07-09T10:28:30.628Z,48.54
2018-07-09T10:29:30.627Z,52.02
2018-07-09T10:30:30.816Z,52.97
2018-07-09T10:31:30.636Z,50.28
2018-07-09T10:32:30.640Z,49.51
2018-07-09T10:33:30.636Z,51.06
2018-07-09T10:34:30.642Z,49.51
2018-07-09T10:35:30.641Z,46.53
2018-07-09T10:36:30.386Z,46.34
2018-07-09T10:37:30.645Z,47.31
2018-07-09T10:38:30.651Z,49.15
2018-07-09T10:39:30.751Z,47.31
2018-07-09T10:40:30.655Z,47.81
2018-07-09T10:41:30.397Z,47.5
2018-07-09T10:42:30.661Z,50.33
2018-07-09T10:43:30.661Z,47.24
2018-07-09T10:44:30.663Z,46.36
2018-07-09T10:45:30.665Z,49.17
2018-07-09T10:46:30.665Z,49.17
2018-07-09T10:47:30.674Z,49.65
2018-07-09T10:48:30.669Z,48.97
2018-07-09T10:49:30.671Z,48.88
2018-07-09T10:50:30.674Z,46.39
2018-07-09T10:51:30.675Z,46.67
2018-07-09T10:52:30.681Z,46.29
2018-07-09T10:53:30.679Z,46.48
2018-07-09T10:54:30.683Z,47.52
2018-07-09T10:55:30.431Z,46.56
2018-07-09T10:56:30.431Z,47.04
2018-07-09T10:57:30.431Z,46.36
2018-07-09T10:58:30.695Z,46.08
2018-07-09T10:59:30.695Z,46.17
2018-07-09T11:00:30.698Z,46.36
2018-07-09T11:01:30.704Z,47.04
2018-07-09T11:02:30.447Z,47.62
2018-07-09T11:03:30.449Z,46.08
2018-07-09T11:04:30.459Z,45.2
2018-07-09T11:05:30.454Z,45.2
2018-07-09T11:06:30.717Z,45.59
2018-07-09T11:07:30.459Z,45.88
2018-07-09T11:08:30.721Z,46.05
2018-07-09T11:09:30.466Z,46.92
2018-07-09T11:10:30.724Z,46.42
2018-07-09T11:11:30.727Z,46.03
2018-07-09T11:12:30.731Z,47.48
2018-07-09T11:13:30.733Z,48.06
2018-07-09T11:14:30.734Z,47.19
2018-07-09T11:15:30.735Z,48.16
2018-07-09T11:16:30.479Z,48.83
2018-07-09T11:17:30.739Z,49.49
2018-07-09T11:18:30.741Z,50.35
2018-07-09T11:19:30.488Z,51.13
2018-07-09T11:20:30.753Z,50.23
2018-07-09T11:21:30.494Z,48.79
2018-07-09T11:22:30.750Z,50.26
2018-07-09T11:23:30.753Z,49.97
2018-07-09T11:24:30.754Z,47.28
2018-07-09T11:25:30.758Z,47.86
2018-07-09T11:26:30.758Z,46.12
2018-07-09T11:27:30.827Z,47.02
2018-07-09T11:28:30.764Z,46.44
2018-07-09T11:29:30.764Z,45.57
2018-07-09T11:30:30.766Z,45.01
2018-07-09T11:31:30.776Z,44.91
2018-07-09T11:32:30.772Z,45.68
2018-07-09T11:33:30.782Z,45.42
2018-07-09T11:34:30.775Z,44.93
2018-07-09T11:35:30.781Z,43.48
2018-07-09T11:36:30.877Z,43.48
2018-07-09T11:37:30.525Z,44.16
2018-07-09T11:38:30.528Z,45.34
2018-07-09T11:39:30.786Z,45.05
2018-07-09T11:40:30.556Z,45.07
2018-07-09T11:41:30.539Z,44.78
2018-07-09T11:42:30.540Z,45.07
2018-07-09T11:43:30.795Z,44.3
2018-07-09T11:44:30.800Z,44.18
2018-07-09T11:45:30.807Z,41.86
2018-07-09T11:46:30.808Z,43.21
2018-07-09T11:47:30.812Z,45.9
2018-07-09T11:48:30.823Z,46.66
2018-07-09T11:49:30.812Z,45.4
2018-07-09T11:50:30.816Z,45.88
2018-07-09T11:51:30.817Z,45.4
2018-07-09T11:52:30.564Z,44.81
2018-07-09T11:53:30.824Z,45.28
2018-07-09T11:54:30.825Z,44.79
2018-07-09T11:55:30.571Z,43.99
2018-07-09T11:56:30.830Z,45.54
2018-07-09T11:57:30.836Z,46.7
2018-07-09T11:58:30.876Z,47.86
2018-07-09T11:59:30.839Z,48.47
2018-07-09T12:00:30.585Z,46.36
2018-07-09T12:01:30.844Z,43.95
2018-07-09T12:02:30.855Z,43.65
2018-07-09T12:03:30.855Z,42.22
2018-07-09T12:04:30.850Z,44.16
2018-07-09T12:05:30.859Z,44.16
2018-07-09T12:06:30.859Z,42.63
2018-07-09T12:07:30.859Z,42.44
2018-07-09T12:08:30.608Z,42.46
2018-07-09T12:09:30.866Z,41.37
2018-07-09T12:10:30.868Z,38.68
2018-07-09T12:11:30.944Z,38.29
2018-07-09T12:12:30.873Z,39.82
2018-07-09T12:13:30.887Z,39.62
2018-07-09T12:14:30.621Z,42.24
2018-07-09T12:15:30.881Z,39.82
2018-07-09T12:16:30.886Z,37.11
2018-07-09T12:17:30.890Z,37.3
2018-07-09T12:18:30.889Z,39.04
2018-07-09T12:19:30.892Z,38.46
2018-07-09T12:20:30.895Z,38.45
2018-07-09T12:21:30.902Z,37.57
2018-07-09T12:22:30.648Z,37.87
2018-07-09T12:23:30.645Z,38.06
2018-07-09T12:24:30.909Z,37.28
2018-07-09T12:25:30.909Z,40.75
2018-07-09T12:26:30.916Z,39.88
2018-07-09T12:27:30.660Z,40.65
2018-07-09T12:28:30.916Z,41.04
2018-07-09T12:29:30.921Z,41.42
2018-07-09T12:30:30.925Z,40.07
2018-07-09T12:31:30.926Z,40.46
2018-07-09T12:32:30.930Z,41.72
2018-07-09T12:33:30.935Z,41.14
2018-07-09T12:34:30.678Z,40.07
2018-07-09T12:35:30.681Z,40.56
2018-07-09T12:36:30.767Z,40.75
2018-07-09T12:37:30.942Z,41.91
2018-07-09T12:38:30.944Z,42.97
2018-07-09T12:39:30.947Z,40.84
2018-07-09T12:40:30.949Z,41.14
2018-07-09T12:41:30.958Z,41.14
2018-07-09T12:42:30.698Z,42.1
2018-07-09T12:43:30.702Z,41.14
2018-07-09T12:44:30.965Z,41.16
2018-07-09T12:45:30.967Z,38.64
2018-07-09T12:46:30.964Z,39.59
2018-07-09T12:47:30.968Z,39.32
2018-07-09T12:48:30.742Z,38.45
2018-07-09T12:49:30.717Z,38.83
2018-07-09T12:50:30.979Z,40.38
2018-07-09T12:51:30.981Z,40.38
2018-07-09T12:52:30.980Z,39.62
2018-07-09T12:53:30.985Z,38.66
2018-07-09T12:54:30.988Z,37.88
2018-07-09T12:55:30.988Z,38.09
2018-07-09T12:56:30.994Z,37.13